sensor_id;sensor_type;location;lat;lon;timestamp;pressure;altitude;pressure_sealevel;temperature;humidity
64402;BME280;50724;42.376;23.768;2024-01-15T00:01:56;92513.34;;;0.95;75.86
64402;BME280;50724;42.376;23.768;2024-01-15T00:04:57;92509.03;;;0.63;77.46
64402;BME280;50724;42.376;23.768;2024-01-15T00:07:57;92509.72;;;0.34;79.14
64402;BME280;50724;42.376;23.768;2024-01-15T00:10:57;92500.81;;;0.38;79.75
64402;BME280;50724;42.376;23.768;2024-01-15T00:13:58;92489.47;;;-0.03;82.07
64402;BME280;50724;42.376;23.768;2024-01-15T00:16:58;92492.28;;;-0.39;84.54
64402;BME280;50724;42.376;23.768;2024-01-15T00:19:59;92490.41;;;-0.15;85.16
64402;BME280;50724;42.376;23.768;2024-01-15T00:22:59;92483.19;;;-0.32;86.41
64402;BME280;50724;42.376;23.768;2024-01-15T00:26:00;92492.41;;;-0.07;85.68
64402;BME280;50724;42.376;23.768;2024-01-15T00:29:00;92492.81;;;0.20;84.39
64402;BME280;50724;42.376;23.768;2024-01-15T00:32:01;92481.66;;;0.42;81.52
64402;BME280;50724;42.376;23.768;2024-01-15T00:35:04;92480.22;;;0.38;82.40
64402;BME280;50724;42.376;23.768;2024-01-15T00:38:05;92477.66;;;0.69;80.52
64402;BME280;50724;42.376;23.768;2024-01-15T00:41:05;92476.06;;;0.57;79.86
64402;BME280;50724;42.376;23.768;2024-01-15T00:44:06;92477.56;;;0.39;80.76
64402;BME280;50724;42.376;23.768;2024-01-15T00:47:07;92475.69;;;0.41;80.72
64402;BME280;50724;42.376;23.768;2024-01-15T00:50:07;92470.44;;;0.32;80.81
64402;BME280;50724;42.376;23.768;2024-01-15T00:53:08;92474.44;;;0.25;81.17
64402;BME280;50724;42.376;23.768;2024-01-15T00:56:09;92480.69;;;0.00;80.66
64402;BME280;50724;42.376;23.768;2024-01-15T00:59:09;92471.72;;;-0.61;82.49
64402;BME280;50724;42.376;23.768;2024-01-15T01:02:10;92475.91;;;-1.04;83.75
64402;BME280;50724;42.376;23.768;2024-01-15T01:05:11;92473.59;;;-0.85;85.39
64402;BME280;50724;42.376;23.768;2024-01-15T01:08:11;92474.84;;;-1.13;88.07
64402;BME280;50724;42.376;23.768;2024-01-15T01:11:15;92480.63;;;-1.22;88.60
64402;BME280;50724;42.376;23.768;2024-01-15T01:14:16;92477.19;;;-1.45;89.36
64402;BME280;50724;42.376;23.768;2024-01-15T01:17:16;92473.41;;;-1.86;95.14
64402;BME280;50724;42.376;23.768;2024-01-15T01:20:17;92478.16;;;-1.93;96.17
64402;BME280;50724;42.376;23.768;2024-01-15T01:23:17;92480.78;;;-1.82;95.73
64402;BME280;50724;42.376;23.768;2024-01-15T01:26:17;92479.47;;;-2.11;100.00
64402;BME280;50724;42.376;23.768;2024-01-15T01:29:18;92483.75;;;-2.12;99.15
64402;BME280;50724;42.376;23.768;2024-01-15T01:32:18;92483.00;;;-2.37;100.00
64402;BME280;50724;42.376;23.768;2024-01-15T01:35:19;92483.59;;;-2.34;100.00
64402;BME280;50724;42.376;23.768;2024-01-15T01:38:19;92473.56;;;-2.37;100.00
64402;BME280;50724;42.376;23.768;2024-01-15T01:41:20;92470.13;;;-2.48;100.00
64402;BME280;50724;42.376;23.768;2024-01-15T01:44:20;92470.69;;;-2.68;100.00
64402;BME280;50724;42.376;23.768;2024-01-15T01:47:21;92469.53;;;-2.64;100.00
64402;BME280;50724;42.376;23.768;2024-01-15T01:50:21;92478.25;;;-2.67;100.00
64402;BME280;50724;42.376;23.768;2024-01-15T01:53:23;92476.63;;;-2.68;100.00
64402;BME280;50724;42.376;23.768;2024-01-15T01:56:23;92477.00;;;-2.61;100.00
64402;BME280;50724;42.376;23.768;2024-01-15T01:59:28;92468.13;;;-2.68;100.00
64402;BME280;50724;42.376;23.768;2024-01-15T02:02:29;92469.22;;;-2.47;100.00
64402;BME280;50724;42.376;23.768;2024-01-15T02:05:30;92463.47;;;-2.51;100.00
64402;BME280;50724;42.376;23.768;2024-01-15T02:08:31;92469.34;;;-2.61;100.00
64402;BME280;50724;42.376;23.768;2024-01-15T02:11:31;92475.78;;;-2.56;100.00
64402;BME280;50724;42.376;23.768;2024-01-15T02:14:32;92468.81;;;-2.54;100.00
64402;BME280;50724;42.376;23.768;2024-01-15T02:17:32;92461.50;;;-2.35;100.00
64402;BME280;50724;42.376;23.768;2024-01-15T02:20:33;92454.16;;;-2.39;100.00
64402;BME280;50724;42.376;23.768;2024-01-15T02:23:34;92447.41;;;-2.53;100.00
64402;BME280;50724;42.376;23.768;2024-01-15T02:26:34;92452.56;;;-2.65;100.00
64402;BME280;50724;42.376;23.768;2024-01-15T02:29:36;92452.06;;;-2.58;100.00
64402;BME280;50724;42.376;23.768;2024-01-15T02:32:36;92457.44;;;-2.62;100.00
64402;BME280;50724;42.376;23.768;2024-01-15T02:35:37;92451.31;;;-2.60;100.00
64402;BME280;50724;42.376;23.768;2024-01-15T02:38:37;92447.06;;;-2.72;100.00
64402;BME280;50724;42.376;23.768;2024-01-15T02:41:38;92437.91;;;-2.63;100.00
64402;BME280;50724;42.376;23.768;2024-01-15T02:44:38;92434.38;;;-2.37;100.00
64402;BME280;50724;42.376;23.768;2024-01-15T02:47:39;92438.34;;;-2.33;100.00
64402;BME280;50724;42.376;23.768;2024-01-15T02:50:39;92432.94;;;-2.41;100.00
64402;BME280;50724;42.376;23.768;2024-01-15T02:53:40;92432.03;;;-2.40;100.00
64402;BME280;50724;42.376;23.768;2024-01-15T02:56:40;92424.63;;;-2.32;100.00
64402;BME280;50724;42.376;23.768;2024-01-15T02:59:49;92416.34;;;-2.36;100.00
64402;BME280;50724;42.376;23.768;2024-01-15T03:02:53;92416.63;;;-2.28;100.00
64402;BME280;50724;42.376;23.768;2024-01-15T03:05:53;92412.41;;;-2.29;100.00
64402;BME280;50724;42.376;23.768;2024-01-15T03:08:55;92403.41;;;-2.34;100.00
64402;BME280;50724;42.376;23.768;2024-01-15T03:11:57;92408.09;;;-2.52;100.00
64402;BME280;50724;42.376;23.768;2024-01-15T03:14:57;92407.16;;;-2.51;100.00
64402;BME280;50724;42.376;23.768;2024-01-15T03:17:58;92399.91;;;-2.21;100.00
64402;BME280;50724;42.376;23.768;2024-01-15T03:20:58;92406.31;;;-2.15;100.00
64402;BME280;50724;42.376;23.768;2024-01-15T03:24:07;92408.22;;;-2.30;100.00
64402;BME280;50724;42.376;23.768;2024-01-15T03:27:07;92402.91;;;-2.63;100.00
64402;BME280;50724;42.376;23.768;2024-01-15T03:30:08;92399.69;;;-2.90;100.00
64402;BME280;50724;42.376;23.768;2024-01-15T03:33:08;92409.91;;;-2.90;100.00
64402;BME280;50724;42.376;23.768;2024-01-15T03:36:09;92406.22;;;-2.73;100.00
64402;BME280;50724;42.376;23.768;2024-01-15T03:39:11;92406.34;;;-2.88;100.00
64402;BME280;50724;42.376;23.768;2024-01-15T03:42:11;92399.50;;;-3.00;100.00
64402;BME280;50724;42.376;23.768;2024-01-15T03:45:20;92392.91;;;-2.79;100.00
64402;BME280;50724;42.376;23.768;2024-01-15T03:48:20;92386.69;;;-2.87;100.00
64402;BME280;50724;42.376;23.768;2024-01-15T03:51:21;92378.63;;;-2.94;100.00
64402;BME280;50724;42.376;23.768;2024-01-15T03:54:21;92381.31;;;-3.08;100.00
64402;BME280;50724;42.376;23.768;2024-01-15T03:57:30;92374.16;;;-3.03;100.00
64402;BME280;50724;42.376;23.768;2024-01-15T04:00:30;92376.34;;;-2.86;100.00
64402;BME280;50724;42.376;23.768;2024-01-15T04:03:39;92365.00;;;-2.82;100.00
64402;BME280;50724;42.376;23.768;2024-01-15T04:06:39;92373.66;;;-2.71;100.00
64402;BME280;50724;42.376;23.768;2024-01-15T04:09:40;92379.97;;;-2.64;100.00
64402;BME280;50724;42.376;23.768;2024-01-15T04:12:40;92377.22;;;-2.61;100.00
64402;BME280;50724;42.376;23.768;2024-01-15T04:15:41;92377.75;;;-3.05;100.00
64402;BME280;50724;42.376;23.768;2024-01-15T04:18:41;92376.09;;;-3.19;100.00
64402;BME280;50724;42.376;23.768;2024-01-15T04:21:42;92376.72;;;-3.15;100.00
64402;BME280;50724;42.376;23.768;2024-01-15T04:24:42;92381.03;;;-3.28;100.00
64402;BME280;50724;42.376;23.768;2024-01-15T04:27:43;92378.97;;;-3.23;100.00
64402;BME280;50724;42.376;23.768;2024-01-15T04:30:43;92379.38;;;-3.42;100.00
64402;BME280;50724;42.376;23.768;2024-01-15T04:33:43;92373.25;;;-3.39;100.00
64402;BME280;50724;42.376;23.768;2024-01-15T04:36:44;92376.25;;;-3.45;100.00
64402;BME280;50724;42.376;23.768;2024-01-15T04:39:44;92373.69;;;-3.33;100.00
64402;BME280;50724;42.376;23.768;2024-01-15T04:42:45;92374.28;;;-3.42;100.00
64402;BME280;50724;42.376;23.768;2024-01-15T04:45:48;92374.72;;;-3.35;100.00
64402;BME280;50724;42.376;23.768;2024-01-15T04:48:48;92354.97;;;-3.33;100.00
64402;BME280;50724;42.376;23.768;2024-01-15T04:51:49;92351.28;;;-3.17;100.00
64402;BME280;50724;42.376;23.768;2024-01-15T04:54:49;92358.44;;;-3.34;100.00
64402;BME280;50724;42.376;23.768;2024-01-15T04:57:50;92361.31;;;-3.26;100.00
64402;BME280;50724;42.376;23.768;2024-01-15T05:00:50;92358.25;;;-3.31;100.00
64402;BME280;50724;42.376;23.768;2024-01-15T05:03:51;92363.94;;;-3.28;100.00
64402;BME280;50724;42.376;23.768;2024-01-15T05:06:51;92361.19;;;-3.25;100.00
64402;BME280;50724;42.376;23.768;2024-01-15T05:09:52;92363.84;;;-3.26;100.00
64402;BME280;50724;42.376;23.768;2024-01-15T05:12:52;92348.63;;;-3.40;100.00
64402;BME280;50724;42.376;23.768;2024-01-15T05:15:52;92352.84;;;-3.52;100.00
64402;BME280;50724;42.376;23.768;2024-01-15T05:18:53;92345.38;;;-3.55;100.00
64402;BME280;50724;42.376;23.768;2024-01-15T05:21:53;92348.53;;;-3.52;100.00
64402;BME280;50724;42.376;23.768;2024-01-15T05:24:54;92340.75;;;-3.37;100.00
64402;BME280;50724;42.376;23.768;2024-01-15T05:27:54;92348.00;;;-3.31;100.00
64402;BME280;50724;42.376;23.768;2024-01-15T05:30:54;92350.56;;;-3.31;100.00
64402;BME280;50724;42.376;23.768;2024-01-15T05:33:55;92359.56;;;-3.26;100.00
64402;BME280;50724;42.376;23.768;2024-01-15T05:37:04;92353.25;;;-3.33;100.00
64402;BME280;50724;42.376;23.768;2024-01-15T05:40:05;92350.66;;;-3.20;100.00
64402;BME280;50724;42.376;23.768;2024-01-15T05:43:05;92343.91;;;-3.21;100.00
64402;BME280;50724;42.376;23.768;2024-01-15T05:46:06;92341.75;;;-3.27;100.00
64402;BME280;50724;42.376;23.768;2024-01-15T05:49:06;92328.28;;;-3.29;100.00
64402;BME280;50724;42.376;23.768;2024-01-15T05:52:07;92329.50;;;-3.35;100.00
64402;BME280;50724;42.376;23.768;2024-01-15T05:55:07;92334.91;;;-3.39;100.00
64402;BME280;50724;42.376;23.768;2024-01-15T05:58:08;92329.28;;;-3.32;100.00
64402;BME280;50724;42.376;23.768;2024-01-15T06:01:08;92324.75;;;-3.16;100.00
64402;BME280;50724;42.376;23.768;2024-01-15T06:04:09;92324.94;;;-2.94;100.00
64402;BME280;50724;42.376;23.768;2024-01-15T06:07:10;92315.75;;;-3.09;100.00
64402;BME280;50724;42.376;23.768;2024-01-15T06:10:10;92317.78;;;-3.01;100.00
64402;BME280;50724;42.376;23.768;2024-01-15T06:13:10;92319.13;;;-2.72;100.00
64402;BME280;50724;42.376;23.768;2024-01-15T06:16:15;92325.38;;;-2.52;100.00
64402;BME280;50724;42.376;23.768;2024-01-15T06:19:16;92322.72;;;-2.74;100.00
64402;BME280;50724;42.376;23.768;2024-01-15T06:22:17;92325.13;;;-2.97;100.00
64402;BME280;50724;42.376;23.768;2024-01-15T06:25:18;92316.44;;;-2.70;100.00
64402;BME280;50724;42.376;23.768;2024-01-15T06:28:18;92318.34;;;-2.38;100.00
64402;BME280;50724;42.376;23.768;2024-01-15T06:31:19;92316.38;;;-2.34;100.00
64402;BME280;50724;42.376;23.768;2024-01-15T06:34:19;92313.81;;;-2.34;100.00
64402;BME280;50724;42.376;23.768;2024-01-15T06:37:20;92309.75;;;-2.02;100.00
64402;BME280;50724;42.376;23.768;2024-01-15T06:40:29;92310.72;;;-1.81;100.00
64402;BME280;50724;42.376;23.768;2024-01-15T06:43:29;92309.44;;;-1.75;100.00
64402;BME280;50724;42.376;23.768;2024-01-15T06:46:30;92316.91;;;-1.61;100.00
64402;BME280;50724;42.376;23.768;2024-01-15T06:49:30;92303.31;;;-1.51;98.21
64402;BME280;50724;42.376;23.768;2024-01-15T06:52:31;92300.03;;;-1.19;96.33
64402;BME280;50724;42.376;23.768;2024-01-15T06:55:31;92301.78;;;-0.98;95.03
64402;BME280;50724;42.376;23.768;2024-01-15T06:58:32;92300.25;;;-0.78;94.43
64402;BME280;50724;42.376;23.768;2024-01-15T07:01:32;92303.91;;;-0.60;94.10
64402;BME280;50724;42.376;23.768;2024-01-15T07:04:33;92306.63;;;-0.30;91.94
64402;BME280;50724;42.376;23.768;2024-01-15T07:07:33;92305.59;;;0.14;88.33
64402;BME280;50724;42.376;23.768;2024-01-15T07:10:33;92306.94;;;0.50;85.65
64402;BME280;50724;42.376;23.768;2024-01-15T07:13:36;92312.75;;;0.73;84.75
64402;BME280;50724;42.376;23.768;2024-01-15T07:16:36;92320.94;;;0.87;81.56
64402;BME280;50724;42.376;23.768;2024-01-15T07:19:37;92329.03;;;0.83;82.52
64402;BME280;50724;42.376;23.768;2024-01-15T07:22:37;92321.59;;;0.80;83.22
64402;BME280;50724;42.376;23.768;2024-01-15T07:25:37;92324.91;;;0.91;82.19
64402;BME280;50724;42.376;23.768;2024-01-15T07:28:38;92327.63;;;0.99;83.20
64402;BME280;50724;42.376;23.768;2024-01-15T07:31:38;92327.47;;;1.31;79.52
64402;BME280;50724;42.376;23.768;2024-01-15T07:34:39;92329.06;;;1.22;82.56
64402;BME280;50724;42.376;23.768;2024-01-15T07:37:39;92327.84;;;1.17;83.87
64402;BME280;50724;42.376;23.768;2024-01-15T07:40:40;92325.72;;;1.41;82.26
64402;BME280;50724;42.376;23.768;2024-01-15T07:43:40;92329.91;;;1.32;81.64
64402;BME280;50724;42.376;23.768;2024-01-15T07:46:45;92331.16;;;0.98;84.80
64402;BME280;50724;42.376;23.768;2024-01-15T07:49:45;92345.88;;;0.87;85.14
64402;BME280;50724;42.376;23.768;2024-01-15T07:52:46;92345.69;;;0.79;85.38
64402;BME280;50724;42.376;23.768;2024-01-15T07:55:47;92355.50;;;1.15;85.29
64402;BME280;50724;42.376;23.768;2024-01-15T07:58:47;92345.19;;;1.55;80.31
64402;BME280;50724;42.376;23.768;2024-01-15T08:01:48;92348.47;;;1.66;79.55
64402;BME280;50724;42.376;23.768;2024-01-15T08:04:48;92338.41;;;1.63;81.70
64402;BME280;50724;42.376;23.768;2024-01-15T08:07:49;92325.84;;;1.30;82.88
64402;BME280;50724;42.376;23.768;2024-01-15T08:10:49;92346.03;;;0.95;83.86
64402;BME280;50724;42.376;23.768;2024-01-15T08:13:50;92365.81;;;0.94;84.60
64402;BME280;50724;42.376;23.768;2024-01-15T08:16:50;92369.09;;;1.06;84.83
64402;BME280;50724;42.376;23.768;2024-01-15T08:19:51;92365.44;;;1.38;82.70
64402;BME280;50724;42.376;23.768;2024-01-15T08:22:51;92361.91;;;1.30;82.51
64402;BME280;50724;42.376;23.768;2024-01-15T08:25:52;92376.44;;;1.80;80.58
64402;BME280;50724;42.376;23.768;2024-01-15T08:28:52;92372.38;;;2.06;79.12
64402;BME280;50724;42.376;23.768;2024-01-15T08:31:53;92377.69;;;2.24;76.70
64402;BME280;50724;42.376;23.768;2024-01-15T08:34:53;92368.06;;;2.36;73.83
64402;BME280;50724;42.376;23.768;2024-01-15T08:37:53;92352.03;;;2.13;78.50
64402;BME280;50724;42.376;23.768;2024-01-15T08:41:03;92340.50;;;2.07;80.31
64402;BME280;50724;42.376;23.768;2024-01-15T08:44:03;92346.06;;;2.13;81.00
64402;BME280;50724;42.376;23.768;2024-01-15T08:47:04;92348.09;;;2.28;79.95
64402;BME280;50724;42.376;23.768;2024-01-15T08:50:12;92347.41;;;2.55;79.36
64402;BME280;50724;42.376;23.768;2024-01-15T08:53:13;92342.25;;;3.11;74.91
64402;BME280;50724;42.376;23.768;2024-01-15T08:56:14;92337.47;;;3.53;71.85
64402;BME280;50724;42.376;23.768;2024-01-15T08:59:15;92341.59;;;3.90;70.49
64402;BME280;50724;42.376;23.768;2024-01-15T09:02:16;92329.31;;;4.20;66.75
64402;BME280;50724;42.376;23.768;2024-01-15T09:05:16;92317.66;;;4.41;65.87
64402;BME280;50724;42.376;23.768;2024-01-15T09:08:26;92301.69;;;4.63;63.67
64402;BME280;50724;42.376;23.768;2024-01-15T09:11:27;92304.09;;;4.82;63.97
64402;BME280;50724;42.376;23.768;2024-01-15T09:14:28;92294.91;;;4.45;66.63
64402;BME280;50724;42.376;23.768;2024-01-15T09:17:29;92277.75;;;4.08;67.10
64402;BME280;50724;42.376;23.768;2024-01-15T09:20:29;92261.50;;;3.81;67.24
64402;BME280;50724;42.376;23.768;2024-01-15T09:23:39;92264.53;;;3.76;68.03
64402;BME280;50724;42.376;23.768;2024-01-15T09:26:39;92266.44;;;3.74;67.83
64402;BME280;50724;42.376;23.768;2024-01-15T09:29:41;92259.25;;;3.51;68.57
64402;BME280;50724;42.376;23.768;2024-01-15T09:32:43;92269.25;;;3.63;67.61
64402;BME280;50724;42.376;23.768;2024-01-15T09:35:43;92251.03;;;3.37;67.56
64402;BME280;50724;42.376;23.768;2024-01-15T09:38:44;92236.16;;;3.22;69.07
64402;BME280;50724;42.376;23.768;2024-01-15T09:41:46;92240.16;;;3.34;68.79
64402;BME280;50724;42.376;23.768;2024-01-15T09:44:55;92232.81;;;3.57;68.72
64402;BME280;50724;42.376;23.768;2024-01-15T09:47:56;92241.75;;;4.15;67.66
64402;BME280;50724;42.376;23.768;2024-01-15T09:50:57;92240.72;;;4.08;65.65
64402;BME280;50724;42.376;23.768;2024-01-15T09:53:59;92249.84;;;3.77;65.16
64402;BME280;50724;42.376;23.768;2024-01-15T09:57:00;92252.38;;;3.59;65.58
64402;BME280;50724;42.376;23.768;2024-01-15T10:00:02;92260.03;;;3.78;65.26
64402;BME280;50724;42.376;23.768;2024-01-15T10:03:07;92262.03;;;3.84;63.36
64402;BME280;50724;42.376;23.768;2024-01-15T10:06:08;92246.94;;;3.62;63.04
64402;BME280;50724;42.376;23.768;2024-01-15T10:09:09;92241.88;;;3.43;63.42
64402;BME280;50724;42.376;23.768;2024-01-15T10:12:10;92229.63;;;3.45;63.78
64402;BME280;50724;42.376;23.768;2024-01-15T10:15:11;92230.59;;;3.44;64.11
64402;BME280;50724;42.376;23.768;2024-01-15T10:18:12;92230.94;;;3.31;65.51
64402;BME280;50724;42.376;23.768;2024-01-15T10:21:13;92213.47;;;3.61;64.47
64402;BME280;50724;42.376;23.768;2024-01-15T10:24:14;92188.88;;;3.39;64.29
64402;BME280;50724;42.376;23.768;2024-01-15T10:27:15;92181.69;;;3.33;64.81
64402;BME280;50724;42.376;23.768;2024-01-15T10:30:16;92178.97;;;3.34;64.33
64402;BME280;50724;42.376;23.768;2024-01-15T10:33:21;92195.50;;;3.59;64.18
64402;BME280;50724;42.376;23.768;2024-01-15T10:36:26;92191.00;;;3.61;64.06
64402;BME280;50724;42.376;23.768;2024-01-15T10:39:26;92192.41;;;3.73;63.18
64402;BME280;50724;42.376;23.768;2024-01-15T10:42:27;92183.25;;;3.43;64.27
64402;BME280;50724;42.376;23.768;2024-01-15T10:45:27;92182.66;;;3.85;63.63
64402;BME280;50724;42.376;23.768;2024-01-15T10:48:28;92170.72;;;4.09;62.57
64402;BME280;50724;42.376;23.768;2024-01-15T10:51:30;92153.19;;;4.21;60.89
64402;BME280;50724;42.376;23.768;2024-01-15T10:54:32;92147.84;;;4.48;58.95
64402;BME280;50724;42.376;23.768;2024-01-15T10:57:32;92135.38;;;4.77;57.71
64402;BME280;50724;42.376;23.768;2024-01-15T11:00:37;92132.63;;;4.79;59.44
64402;BME280;50724;42.376;23.768;2024-01-15T11:03:38;92139.56;;;4.78;59.19
64402;BME280;50724;42.376;23.768;2024-01-15T11:06:52;92146.53;;;4.78;58.17
64402;BME280;50724;42.376;23.768;2024-01-15T11:09:56;92150.19;;;5.09;57.07
64402;BME280;50724;42.376;23.768;2024-01-15T11:12:58;92137.59;;;5.06;57.57
64402;BME280;50724;42.376;23.768;2024-01-15T11:16:03;92132.78;;;5.27;56.91
64402;BME280;50724;42.376;23.768;2024-01-15T11:19:05;92127.25;;;5.22;56.44
64402;BME280;50724;42.376;23.768;2024-01-15T11:22:09;92126.97;;;5.41;56.35
64402;BME280;50724;42.376;23.768;2024-01-15T11:25:14;92115.44;;;5.28;56.73
64402;BME280;50724;42.376;23.768;2024-01-15T11:28:47;92111.09;;;5.61;56.20
64402;BME280;50724;42.376;23.768;2024-01-15T11:34:59;92108.38;;;5.78;54.63
64402;BME280;50724;42.376;23.768;2024-01-15T11:38:10;92102.38;;;6.02;55.35
64402;BME280;50724;42.376;23.768;2024-01-15T11:41:14;92097.31;;;6.24;54.86
64402;BME280;50724;42.376;23.768;2024-01-15T11:44:18;92084.97;;;6.27;53.70
64402;BME280;50724;42.376;23.768;2024-01-15T11:47:39;92084.66;;;6.30;53.52
64402;BME280;50724;42.376;23.768;2024-01-15T11:50:49;92092.72;;;6.51;52.65
64402;BME280;50724;42.376;23.768;2024-01-15T11:53:52;92096.50;;;6.32;52.85
64402;BME280;50724;42.376;23.768;2024-01-15T11:56:56;92100.59;;;6.02;53.53
64402;BME280;50724;42.376;23.768;2024-01-15T11:59:58;92108.69;;;5.91;53.61
64402;BME280;50724;42.376;23.768;2024-01-15T12:02:59;92094.56;;;6.10;53.85
64402;BME280;50724;42.376;23.768;2024-01-15T12:05:59;92097.47;;;6.31;53.21
64402;BME280;50724;42.376;23.768;2024-01-15T12:09:07;92092.56;;;6.44;53.64
64402;BME280;50724;42.376;23.768;2024-01-15T12:12:09;92084.09;;;6.58;53.87
64402;BME280;50724;42.376;23.768;2024-01-15T12:15:15;92077.44;;;6.48;54.07
64402;BME280;50724;42.376;23.768;2024-01-15T12:18:17;92082.47;;;6.57;53.11
64402;BME280;50724;42.376;23.768;2024-01-15T12:21:18;92080.75;;;6.34;52.67
64402;BME280;50724;42.376;23.768;2024-01-15T12:24:20;92083.50;;;6.24;54.13
64402;BME280;50724;42.376;23.768;2024-01-15T12:27:21;92070.44;;;6.01;54.49
64402;BME280;50724;42.376;23.768;2024-01-15T12:30:22;92077.88;;;5.80;55.68
64402;BME280;50724;42.376;23.768;2024-01-15T12:33:22;92071.25;;;5.86;55.58
64402;BME280;50724;42.376;23.768;2024-01-15T12:36:23;92065.72;;;5.81;56.47
64402;BME280;50724;42.376;23.768;2024-01-15T12:39:24;92061.97;;;5.75;56.13
64402;BME280;50724;42.376;23.768;2024-01-15T12:42:25;92069.59;;;5.44;55.76
64402;BME280;50724;42.376;23.768;2024-01-15T12:45:25;92076.06;;;5.24;56.37
64402;BME280;50724;42.376;23.768;2024-01-15T12:48:26;92068.72;;;4.96;56.65
64402;BME280;50724;42.376;23.768;2024-01-15T12:51:27;92067.25;;;4.85;57.60
64402;BME280;50724;42.376;23.768;2024-01-15T12:54:27;92061.56;;;4.81;57.67
64402;BME280;50724;42.376;23.768;2024-01-15T12:57:28;92059.94;;;4.39;57.97
64402;BME280;50724;42.376;23.768;2024-01-15T13:00:28;92051.38;;;4.80;56.88
64402;BME280;50724;42.376;23.768;2024-01-15T13:03:29;92057.03;;;4.83;57.16
64402;BME280;50724;42.376;23.768;2024-01-15T13:06:29;92057.19;;;4.90;56.60
64402;BME280;50724;42.376;23.768;2024-01-15T13:09:30;92059.97;;;4.88;56.70
64402;BME280;50724;42.376;23.768;2024-01-15T13:12:30;92058.00;;;4.82;56.77
64402;BME280;50724;42.376;23.768;2024-01-15T13:15:31;92047.66;;;4.91;56.35
64402;BME280;50724;42.376;23.768;2024-01-15T13:18:31;92037.91;;;4.76;55.84
64402;BME280;50724;42.376;23.768;2024-01-15T13:21:32;92038.03;;;4.67;57.10
64402;BME280;50724;42.376;23.768;2024-01-15T13:24:32;92044.91;;;4.84;56.46
64402;BME280;50724;42.376;23.768;2024-01-15T13:27:33;92035.47;;;4.75;55.51
64402;BME280;50724;42.376;23.768;2024-01-15T13:30:35;92032.84;;;4.59;55.98
64402;BME280;50724;42.376;23.768;2024-01-15T13:33:35;92026.63;;;4.44;56.36
64402;BME280;50724;42.376;23.768;2024-01-15T13:36:36;92020.56;;;4.61;56.22
64402;BME280;50724;42.376;23.768;2024-01-15T13:39:39;92012.28;;;4.57;56.26
64402;BME280;50724;42.376;23.768;2024-01-15T13:42:48;92011.50;;;4.57;56.58
64402;BME280;50724;42.376;23.768;2024-01-15T13:45:52;92011.97;;;4.60;56.19
64402;BME280;50724;42.376;23.768;2024-01-15T13:48:54;92016.66;;;4.57;56.27
64402;BME280;50724;42.376;23.768;2024-01-15T13:52:11;92026.88;;;4.16;57.73
64402;BME280;50724;42.376;23.768;2024-01-15T13:55:12;92025.88;;;4.17;58.27
64402;BME280;50724;42.376;23.768;2024-01-15T13:58:13;92018.28;;;4.16;58.59
64402;BME280;50724;42.376;23.768;2024-01-15T14:01:13;92017.56;;;3.98;58.70
64402;BME280;50724;42.376;23.768;2024-01-15T14:04:14;92014.44;;;3.86;58.72
64402;BME280;50724;42.376;23.768;2024-01-15T14:07:14;92013.34;;;3.71;59.39
64402;BME280;50724;42.376;23.768;2024-01-15T14:10:15;92011.13;;;3.76;59.66
64402;BME280;50724;42.376;23.768;2024-01-15T14:13:16;91998.50;;;3.73;59.90
64402;BME280;50724;42.376;23.768;2024-01-15T14:16:16;92002.88;;;3.73;59.85
64402;BME280;50724;42.376;23.768;2024-01-15T14:19:17;92008.75;;;3.57;60.65
64402;BME280;50724;42.376;23.768;2024-01-15T14:22:18;91998.84;;;3.78;60.16
64402;BME280;50724;42.376;23.768;2024-01-15T14:25:19;92005.09;;;3.68;60.35
64402;BME280;50724;42.376;23.768;2024-01-15T14:28:19;92012.03;;;3.67;60.28
64402;BME280;50724;42.376;23.768;2024-01-15T14:31:20;92005.88;;;3.60;61.08
64402;BME280;50724;42.376;23.768;2024-01-15T14:34:20;91997.59;;;3.57;61.05
64402;BME280;50724;42.376;23.768;2024-01-15T14:37:23;91996.81;;;3.38;61.81
64402;BME280;50724;42.376;23.768;2024-01-15T14:40:32;92000.13;;;3.23;63.02
64402;BME280;50724;42.376;23.768;2024-01-15T14:43:32;91997.63;;;3.13;63.80
64402;BME280;50724;42.376;23.768;2024-01-15T14:46:41;92002.94;;;3.12;63.88
64402;BME280;50724;42.376;23.768;2024-01-15T14:49:42;91992.38;;;3.05;64.01
64402;BME280;50724;42.376;23.768;2024-01-15T14:52:51;91997.50;;;2.97;63.87
64402;BME280;50724;42.376;23.768;2024-01-15T14:55:51;91996.50;;;2.98;63.63
64402;BME280;50724;42.376;23.768;2024-01-15T14:58:51;92003.09;;;2.93;63.40
64402;BME280;50724;42.376;23.768;2024-01-15T15:01:52;91992.69;;;2.85;63.75
64402;BME280;50724;42.376;23.768;2024-01-15T15:04:54;91992.59;;;2.59;64.31
64402;BME280;50724;42.376;23.768;2024-01-15T15:07:56;91992.06;;;2.20;65.32
64402;BME280;50724;42.376;23.768;2024-01-15T15:10:56;91995.97;;;2.24;65.50
64402;BME280;50724;42.376;23.768;2024-01-15T15:13:57;91994.78;;;1.91;65.89
64402;BME280;50724;42.376;23.768;2024-01-15T15:16:57;91990.88;;;1.87;66.30
64402;BME280;50724;42.376;23.768;2024-01-15T15:19:58;91988.84;;;1.81;66.29
64402;BME280;50724;42.376;23.768;2024-01-15T15:22:58;91986.69;;;1.77;66.32
64402;BME280;50724;42.376;23.768;2024-01-15T15:25:59;91990.69;;;1.62;67.21
64402;BME280;50724;42.376;23.768;2024-01-15T15:28:59;91983.91;;;1.61;67.59
64402;BME280;50724;42.376;23.768;2024-01-15T15:32:00;91982.09;;;1.24;68.63
64402;BME280;50724;42.376;23.768;2024-01-15T15:35:00;91991.34;;;1.17;69.99
64402;BME280;50724;42.376;23.768;2024-01-15T15:38:01;91987.56;;;1.12;71.57
64402;BME280;50724;42.376;23.768;2024-01-15T15:41:10;91985.00;;;0.93;72.29
64402;BME280;50724;42.376;23.768;2024-01-15T15:44:10;91989.50;;;0.52;74.51
64402;BME280;50724;42.376;23.768;2024-01-15T15:47:13;91975.03;;;0.61;74.25
64402;BME280;50724;42.376;23.768;2024-01-15T15:50:14;91981.09;;;0.41;74.25
64402;BME280;50724;42.376;23.768;2024-01-15T15:53:15;91983.00;;;0.48;74.51
64402;BME280;50724;42.376;23.768;2024-01-15T15:56:15;91983.53;;;0.33;75.37